Springfield, IL (62723)

11:37 PM CDT on June 01, 2015 (GMT -0500)
Southwest Springfield | | Change Station
CLOSE
Current Station
Personal Weather Station
Location: Springfield, IL
Elevation: 607 ft
Nearby Weather Stations

Elev 607 ft 39.76 °N, 89.68 °W | Updated 8 seconds ago

Clear
Clear
56.7 °F
Feels Like 56.7 °F
N
3.5
Wind Variable Wind from ESE
Gusts 3.5 mph

Today
High -- | Low -- °F
--% Chance of Precip.
Yesterday
High -- | Low -- °F
Precip. -- in
5:32 AM 8:20 PM
Full, 100% visible
Pressure 30.16 in
Visibility 10.0 miles
Clouds Clear
Dew Point 53 °F
Humidity 88%
Rainfall 0.00 in
Snow Depth Not available.
UV 0 out of 12
Pollen 7.90 out of 12
Air Quality Not available.
Flu Activity Sporadic
METAR KSPI 020352Z AUTO 06004KT 10SM CLR 14/11 A3016 RMK AO2 SLP213 T01390111

More Conditions Fewer Conditions

Pressure 30.16 in
Visibility 10.0 miles
Clouds Clear
Dew Point 53 °F
Humidity 88%
Rainfall 0.00 in
Snow Depth Not available.
UV 0 out of 12
Pollen 7.90 out of 12
Air Quality Not available.
Flu Activity Sporadic
METAR KSPI 020352Z AUTO 06004KT 10SM CLR 14/11 A3016 RMK AO2 SLP213 T01390111

More Conditions Fewer Conditions

10-Day Weather Forecast

Almanac

Astronomy

Jun. 01, 2015 Rise Set
Actual Time
Civil Twilight
Nautical Twilight
Astronomical Twilight
Moon
Length of Visible Light
Length of Day
Tomorrow will be .
, % of the Moon is Illuminated

Today's Extremes

State Highs State Lows

Community

WunderPhotos

Upload Photos

1,825,908 photos uploaded!

WunderBlogs® & News

Nearby

Air Quality

  Air Quality AQ Index Pollutant
Not available.

Snow Depth

Station Depth Elevation

Earthquake Activity

City Distance Mag. Time & Date
Minimum magnitude displayed is 2.5.

Coastal Water Temperatures

Place Temperature

Stations

Nearby Weather Stations

Station Location Temp. Windchill Dew Point Humidity Wind Precip. Elev Updated Type